createdAt,value
2024-01-10T00:03:12.596Z,250.90
2024-01-10T00:08:17.812Z,250.90
2024-01-10T00:14:19.842Z,272.30
2024-01-10T00:19:42.107Z,304.80
2024-01-10T00:24:45.780Z,290.40
2024-01-10T00:29:47.731Z,280.70
2024-01-10T00:34:50.119Z,262.80
2024-01-10T00:39:52.367Z,242.30
2024-01-10T00:44:54.671Z,180.20
2024-01-10T00:49:56.926Z,190.10
2024-01-10T00:54:59.216Z,172.30
2024-01-10T01:00:01.633Z,174.90
2024-01-10T01:05:04.326Z,215.00
2024-01-10T01:10:07.293Z,254.00
2024-01-10T01:15:09.728Z,291.10
2024-01-10T01:20:11.952Z,266.20
2024-01-10T01:25:14.324Z,244.20
2024-01-10T01:30:16.707Z,254.50
2024-01-10T01:35:23.140Z,268.90
2024-01-10T01:40:25.331Z,275.00
2024-01-10T01:45:27.524Z,280.30
2024-01-10T01:50:30.174Z,268.10
2024-01-10T01:55:32.278Z,267.70
2024-01-10T02:00:35.262Z,221.10
2024-01-10T02:05:38.549Z,209.30
2024-01-10T02:10:40.979Z,230.40
2024-01-10T02:15:43.125Z,221.60
2024-01-10T02:20:49.002Z,229.00
2024-01-10T02:25:51.376Z,237.10
2024-01-10T02:30:55.828Z,259.60
2024-01-10T02:35:58.289Z,267.00
2024-01-10T02:41:02.044Z,259.10
2024-01-10T02:46:07.187Z,261.50
2024-01-10T02:51:09.242Z,253.10
2024-01-10T02:56:11.739Z,263.50
2024-01-10T03:02:13.630Z,218.10
2024-01-10T03:08:23.310Z,274.10
2024-01-10T03:13:25.534Z,224.70
2024-01-10T03:18:27.866Z,228.60
2024-01-10T03:23:30.125Z,282.70
2024-01-10T03:28:47.874Z,289.80
2024-01-10T03:33:57.597Z,299.60
2024-01-10T03:39:00.549Z,234.60
2024-01-10T03:45:02.673Z,270.80
2024-01-10T03:50:51.629Z,240.90
2024-01-10T03:55:53.750Z,197.60
2024-01-10T04:01:18.667Z,204.60
2024-01-10T04:07:20.536Z,208.90
2024-01-10T04:12:42.760Z,188.40
2024-01-10T04:17:45.123Z,197.90
2024-01-10T04:22:47.299Z,186.90
2024-01-10T04:27:51.520Z,185.10
2024-01-10T04:32:53.685Z,215.90
2024-01-10T04:37:55.888Z,219.00
2024-01-10T04:42:58.265Z,201.40
2024-01-10T04:48:03.432Z,190.00
2024-01-10T04:53:05.728Z,204.80
2024-01-10T04:58:10.121Z,214.70
2024-01-10T05:03:18.151Z,209.10
2024-01-10T05:08:22.328Z,209.70
2024-01-10T05:13:30.141Z,199.50
2024-01-10T05:18:39.174Z,181.60
2024-01-10T05:23:41.661Z,187.00
2024-01-10T05:28:43.865Z,175.40
2024-01-10T05:33:46.192Z,175.10
2024-01-10T05:39:48.090Z,182.10
2024-01-10T05:45:10.543Z,189.00
2024-01-10T05:50:12.897Z,193.80
2024-01-10T05:55:15.172Z,214.20
2024-01-10T06:00:24.546Z,260.80
2024-01-10T06:05:29.412Z,233.10
2024-01-10T06:10:37.266Z,193.90
2024-01-10T06:16:08.274Z,268.00
2024-01-10T06:21:30.344Z,289.70
2024-01-10T06:26:34.836Z,216.10
2024-01-10T06:32:36.864Z,211.80
2024-01-10T06:38:13.786Z,193.80
2024-01-10T06:43:16.309Z,207.40
2024-01-10T06:48:20.305Z,196.00
2024-01-10T06:53:23.684Z,200.40
2024-01-10T06:58:26.039Z,207.50
2024-01-10T07:03:28.493Z,200.20
2024-01-10T07:08:32.138Z,178.40
2024-01-10T07:13:34.485Z,226.10
2024-01-10T07:18:37.737Z,199.00
2024-01-10T07:23:42.431Z,202.00
2024-01-10T07:28:44.873Z,217.10
2024-01-10T07:33:47.817Z,249.70
2024-01-10T07:38:50.099Z,253.30
2024-01-10T07:43:52.402Z,269.90
2024-01-10T07:48:54.714Z,312.30
2024-01-10T07:54:05.609Z,299.30
2024-01-10T07:59:07.946Z,296.50
2024-01-10T08:04:17.589Z,331.30
2024-01-10T08:09:38.770Z,306.00
2024-01-10T08:15:01.054Z,299.10
2024-01-10T08:20:07.734Z,283.50
2024-01-10T08:25:17.454Z,336.10
2024-01-10T08:30:42.508Z,278.20
2024-01-10T08:40:50.344Z,300.80
2024-01-10T08:45:59.200Z,309.80
2024-01-10T08:51:04.441Z,284.10
2024-01-10T08:56:07.491Z,267.30
2024-01-10T09:01:12.291Z,278.40
2024-01-10T09:06:14.770Z,311.90
2024-01-10T09:11:17.192Z,325.40
2024-01-10T09:16:40.269Z,330.00
2024-01-10T09:22:22.742Z,305.40
2024-01-10T09:27:33.232Z,323.20
2024-01-10T09:32:44.424Z,338.60
2024-01-10T09:37:46.716Z,329.60
2024-01-10T09:42:52.538Z,272.50
2024-01-10T09:48:00.308Z,262.10
2024-01-10T09:53:08.945Z,253.40
2024-01-10T09:58:11.787Z,273.00
2024-01-10T10:03:15.660Z,253.70
2024-01-10T10:08:23.890Z,268.90
2024-01-10T10:13:28.052Z,311.20
2024-01-10T10:18:31.473Z,246.50
2024-01-10T10:23:34.371Z,234.50
2024-01-10T10:28:36.651Z,222.60
2024-01-10T10:33:39.086Z,215.50
2024-01-10T10:38:41.678Z,198.90
2024-01-10T10:43:43.869Z,203.40
2024-01-10T10:48:46.284Z,187.50
2024-01-10T10:53:49.611Z,188.80
2024-01-10T10:58:52.756Z,185.60
2024-01-10T11:03:55.326Z,191.30
2024-01-10T11:09:12.663Z,188.00
2024-01-10T11:14:23.985Z,188.20
2024-01-10T11:20:00.999Z,202.90
2024-01-10T11:25:03.469Z,210.10
2024-01-10T11:30:07.269Z,210.70
2024-01-10T11:35:22.083Z,221.30
2024-01-10T11:40:50.160Z,227.30
2024-01-10T11:45:58.630Z,238.80
2024-01-10T11:51:02.171Z,239.00
2024-01-10T12:11:13.053Z,207.10
2024-01-10T12:16:15.958Z,222.00
2024-01-10T12:21:19.073Z,207.40
2024-01-10T12:26:21.349Z,201.20
2024-01-10T12:31:27.258Z,202.00
2024-01-10T12:36:29.560Z,211.90
2024-01-10T12:41:32.708Z,199.50
2024-01-10T12:46:35.196Z,212.30
2024-01-10T12:51:40.498Z,210.70
2024-01-10T12:56:43.129Z,207.50
2024-01-10T13:02:05.013Z,209.40
2024-01-10T13:07:10.173Z,197.60
2024-01-10T13:12:15.025Z,206.20
2024-01-10T13:17:19.783Z,199.30
2024-01-10T13:22:22.470Z,201.20
2024-01-10T13:27:25.648Z,208.50
2024-01-10T13:32:30.228Z,201.10
2024-01-10T13:37:33.761Z,221.80
2024-01-10T13:42:35.865Z,204.70
2024-01-10T13:47:39.737Z,216.40
2024-01-10T13:52:47.462Z,211.40
2024-01-10T13:57:54.380Z,210.40
2024-01-10T14:04:16.585Z,238.50
2024-01-10T14:09:55.727Z,222.60
2024-01-10T14:14:59.678Z,226.70
2024-01-10T14:20:03.359Z,242.40
2024-01-10T14:25:07.079Z,222.70
2024-01-10T14:30:10.129Z,223.30
2024-01-10T14:35:12.959Z,240.50
2024-01-10T14:40:15.673Z,237.20
2024-01-10T14:45:17.798Z,234.10
2024-01-10T14:50:20.773Z,234.10
2024-01-10T14:55:22.905Z,240.40
2024-01-10T15:00:25.246Z,237.50
2024-01-10T15:05:28.154Z,223.20
2024-01-10T15:10:30.394Z,245.50
2024-01-10T15:15:34.136Z,232.80
2024-01-10T15:20:36.804Z,249.50
2024-01-10T15:25:39.676Z,273.50
2024-01-10T15:30:47.859Z,271.00
2024-01-10T15:35:51.727Z,308.80
2024-01-10T15:40:54.833Z,288.30
2024-01-10T15:45:56.920Z,292.10
2024-01-10T15:50:59.555Z,351.80
2024-01-10T15:56:01.778Z,403.80
2024-01-10T16:01:04.808Z,385.40
2024-01-10T16:06:07.739Z,389.40
2024-01-10T16:12:09.985Z,448.20
2024-01-10T16:17:33.150Z,488.80
2024-01-10T16:22:35.381Z,365.90
2024-01-10T16:27:37.912Z,379.20
2024-01-10T16:32:40.955Z,384.70
2024-01-10T16:37:43.407Z,370.60
2024-01-10T16:42:46.404Z,381.90
2024-01-10T16:47:50.123Z,398.80
2024-01-10T16:53:02.574Z,404.40
2024-01-10T16:58:04.857Z,455.50
2024-01-10T17:03:08.452Z,482.50
2024-01-10T17:08:15.764Z,482.50
2024-01-10T17:13:18.233Z,476.80
2024-01-10T17:18:20.815Z,468.20
2024-01-10T17:23:25.892Z,462.70
2024-01-10T17:28:28.962Z,442.60
2024-01-10T17:33:31.384Z,430.90
2024-01-10T17:38:33.604Z,402.40
2024-01-10T17:43:36.125Z,395.80
2024-01-10T17:48:38.487Z,409.70
2024-01-10T17:53:41.025Z,419.70
2024-01-10T17:58:43.946Z,370.00
2024-01-10T18:03:47.203Z,405.70
2024-01-10T18:08:50.906Z,442.50
2024-01-10T18:13:53.673Z,430.30
2024-01-10T18:18:56.373Z,412.50
2024-01-10T18:23:59.379Z,414.50
2024-01-10T18:29:02.080Z,478.50
2024-01-10T18:34:04.722Z,552.80
2024-01-10T18:39:14.164Z,576.00
2024-01-10T18:44:16.601Z,614.70
2024-01-10T18:49:18.910Z,591.00
2024-01-10T18:54:24.098Z,518.90
2024-01-10T18:59:28.207Z,471.70
2024-01-10T19:04:31.200Z,489.00
2024-01-10T19:09:33.768Z,457.50
2024-01-10T19:14:37.111Z,451.80
2024-01-10T19:20:39.032Z,435.80
2024-01-10T19:26:01.411Z,443.80
2024-01-10T19:31:04.373Z,435.00
2024-01-10T19:36:08.150Z,438.40
2024-01-10T19:41:19.895Z,431.40
2024-01-10T19:47:21.846Z,429.10
2024-01-10T19:52:44.382Z,411.60
2024-01-10T19:57:46.939Z,424.50
2024-01-10T20:02:50.120Z,415.50
2024-01-10T20:07:54.626Z,410.10
2024-01-10T20:12:57.031Z,401.20
2024-01-10T20:18:00.831Z,422.20
2024-01-10T20:24:02.709Z,400.80
2024-01-10T20:30:24.887Z,405.30
2024-01-10T20:35:47.058Z,387.00
2024-01-10T20:41:51.688Z,384.00
2024-01-10T20:48:14.836Z,401.50
2024-01-10T20:54:39.470Z,390.80
2024-01-10T21:01:02.655Z,412.40
2024-01-10T21:06:26.538Z,444.70
2024-01-10T21:12:28.497Z,446.40
2024-01-10T21:18:51.417Z,472.80
2024-01-10T21:24:50.476Z,463.30
2024-01-10T21:29:55.939Z,470.50
2024-01-10T21:34:58.547Z,467.10
2024-01-10T21:40:01.066Z,449.30
2024-01-10T21:45:03.574Z,394.30
2024-01-10T21:50:06.238Z,417.00
2024-01-10T21:55:09.007Z,421.10
2024-01-10T22:00:32.818Z,413.10
2024-01-10T22:05:35.102Z,404.50
2024-01-10T22:10:38.163Z,380.50
2024-01-10T22:15:40.312Z,385.20
2024-01-10T22:20:45.818Z,375.10
2024-01-10T22:25:48.501Z,400.60
2024-01-10T22:30:51.714Z,433.50
2024-01-10T22:35:54.219Z,431.60
2024-01-10T22:40:57.060Z,398.00
2024-01-10T22:46:02.510Z,394.90
2024-01-10T22:51:04.970Z,394.80
2024-01-10T22:56:07.327Z,358.90
2024-01-10T23:01:09.851Z,382.60
2024-01-10T23:06:12.196Z,376.20
2024-01-10T23:11:15.028Z,338.30
2024-01-10T23:16:17.094Z,363.90
2024-01-10T23:21:19.685Z,354.20
2024-01-10T23:26:22.042Z,339.00
2024-01-10T23:32:04.390Z,356.60
2024-01-10T23:37:10.162Z,324.40
2024-01-10T23:42:12.360Z,363.90
2024-01-10T23:47:14.475Z,349.50
2024-01-10T23:52:16.647Z,342.90
2024-01-10T23:57:37.969Z,338.10
